Terminal Aerodrome Forecast
Issued by NWS Charleston, SC

Home | Current Version | Previous Version | Text Only | Print | Product List | Glossary On
Versions: 1 2 3 4 5 6 7 8 9 10 11 12 13 14 15
129
FTUS42 KCHS 300929 AAA
TAFCHS
TAF AMD
KCHS 300929Z 3009/3106 09007KT P6SM SCT015 BKN025
     FM301400 11011KT P6SM SCT020 BKN030
     FM301800 13013G18KT P6SM SCT025 BKN035
     FM310000 15010KT P6SM VCSH SCT015 BKN040=

USA.gov is the U.S. government's official web portal to all federal, state and local government web resources and services.